createdAt,value
2018-05-08T00:02:10.747Z,14.30
2018-05-08T00:04:39.029Z,14.20
2018-05-08T00:07:07.324Z,14.30
2018-05-08T00:09:35.601Z,14.30
2018-05-08T00:30:05.796Z,14.30
2018-05-08T00:32:34.099Z,14.20
2018-05-08T00:35:02.405Z,14.20
2018-05-08T00:37:30.796Z,14.30
2018-05-08T00:39:59.103Z,14.30
2018-05-08T00:42:27.403Z,14.20
2018-05-08T00:44:55.712Z,14.30
2018-05-08T00:47:23.995Z,14.30
2018-05-08T01:07:55.327Z,13.70
2018-05-08T01:10:24.370Z,13.70
2018-05-08T01:12:52.646Z,13.70
2018-05-08T01:15:20.913Z,13.70
2018-05-08T01:17:49.202Z,13.70
2018-05-08T01:20:17.503Z,13.80
2018-05-08T01:22:45.768Z,13.70
2018-05-08T01:25:14.084Z,13.60
2018-05-08T01:45:44.497Z,13.70
2018-05-08T01:48:12.806Z,13.60
2018-05-08T01:50:41.097Z,13.60
2018-05-08T01:53:09.372Z,13.50
2018-05-08T01:55:37.637Z,13.50
2018-05-08T01:58:05.885Z,13.20
2018-05-08T02:18:36.994Z,13.00
2018-05-08T02:21:05.272Z,12.90
2018-05-08T02:23:33.574Z,12.80
2018-05-08T02:26:01.908Z,12.70
2018-05-08T02:28:30.144Z,12.60
2018-05-08T02:30:59.165Z,12.40
2018-05-08T02:33:27.511Z,12.30
2018-05-08T02:35:56.567Z,12.30
2018-05-08T02:38:24.918Z,12.20
2018-05-08T02:40:53.209Z,12.00
2018-05-08T02:43:21.488Z,12.10
2018-05-08T02:45:49.782Z,12.20
2018-05-08T03:06:21.734Z,12.50
2018-05-08T03:08:50.815Z,12.50
2018-05-08T03:11:19.116Z,12.50
2018-05-08T03:13:48.287Z,12.30
2018-05-08T03:16:17.413Z,12.30
2018-05-08T03:18:46.437Z,12.20
2018-05-08T03:21:14.764Z,12.20
2018-05-08T03:23:43.063Z,12.10
2018-05-08T03:26:11.442Z,12.00
2018-05-08T03:28:39.732Z,11.90
2018-05-08T03:31:08.778Z,11.80
2018-05-08T03:33:37.061Z,11.70
2018-05-08T03:36:05.363Z,11.80
2018-05-08T03:38:33.637Z,11.90
2018-05-08T04:17:06.167Z,11.80
2018-05-08T04:19:34.401Z,11.70
2018-05-08T04:22:02.722Z,11.70
2018-05-08T04:24:31.027Z,11.70
2018-05-08T04:26:59.298Z,11.60
2018-05-08T04:29:27.569Z,11.60
2018-05-08T04:31:55.891Z,11.60
2018-05-08T04:34:24.170Z,11.70
2018-05-08T04:54:56.370Z,11.90
2018-05-08T04:57:24.733Z,11.80
2018-05-08T04:59:53.035Z,11.80
2018-05-08T05:02:21.335Z,11.80
2018-05-08T05:04:49.646Z,11.80
2018-05-08T05:07:17.928Z,11.80
2018-05-08T05:09:46.165Z,11.90
2018-05-08T05:12:14.508Z,12.00
2018-05-08T05:32:44.962Z,12.30
2018-05-08T05:35:13.262Z,12.30
2018-05-08T05:55:45.626Z,13.10
2018-05-08T06:16:16.177Z,13.90
2018-05-08T06:18:45.939Z,14.00
2018-05-08T06:21:14.224Z,14.00
2018-05-08T06:23:42.522Z,14.00
2018-05-08T06:26:10.767Z,14.10
2018-05-08T06:28:39.023Z,14.10
2018-05-08T06:31:07.370Z,14.10
2018-05-08T06:33:35.635Z,14.20
2018-05-08T06:36:03.942Z,14.40
2018-05-08T06:38:32.193Z,14.50
2018-05-08T06:41:00.509Z,14.60
2018-05-08T07:01:30.378Z,15.10
2018-05-08T07:03:59.424Z,15.20
2018-05-08T07:06:27.667Z,15.10
2018-05-08T07:08:56.016Z,15.20
2018-05-08T07:29:26.962Z,15.70
2018-05-08T07:31:55.294Z,15.80
2018-05-08T07:34:23.541Z,15.80
2018-05-08T07:36:51.885Z,15.90
2018-05-08T07:39:20.196Z,15.90
2018-05-08T07:59:50.747Z,16.20
2018-05-08T08:02:19.025Z,16.40
2018-05-08T08:04:47.360Z,16.40
2018-05-08T08:07:16.407Z,16.60
2018-05-08T08:27:47.598Z,17.00
2018-05-08T08:30:16.648Z,17.20
2018-05-08T08:32:44.926Z,17.10
2018-05-08T08:35:13.236Z,17.30
2018-05-08T08:37:41.522Z,17.30
2018-05-08T08:40:09.787Z,17.40
2018-05-08T08:42:38.129Z,17.40
2018-05-08T08:45:07.158Z,17.50
2018-05-08T08:47:35.501Z,17.50
2018-05-08T08:50:04.882Z,17.70
2018-05-08T08:52:33.120Z,17.70
2018-05-08T08:55:01.407Z,17.80
2018-05-08T08:57:29.737Z,17.90
2018-05-08T08:59:58.732Z,18.00
2018-05-08T09:02:27.818Z,18.10
2018-05-08T09:04:56.093Z,18.10
2018-05-08T09:07:24.405Z,18.10
2018-05-08T09:09:53.468Z,18.20
2018-05-08T09:12:21.735Z,18.20
2018-05-08T09:14:50.023Z,18.30
2018-05-08T09:17:18.318Z,18.50
2018-05-08T09:19:48.178Z,18.50
2018-05-08T09:22:16.446Z,18.50
2018-05-08T09:24:44.783Z,18.60
2018-05-08T09:27:13.068Z,18.70
2018-05-08T09:29:41.373Z,18.80
2018-05-08T09:32:10.420Z,18.80
2018-05-08T09:34:38.685Z,18.80
2018-05-08T09:37:06.933Z,18.90
2018-05-08T09:39:36.019Z,19.10
2018-05-08T09:42:04.283Z,19.10
2018-05-08T09:44:32.534Z,19.10
2018-05-08T09:47:00.820Z,19.10
2018-05-08T09:49:29.122Z,19.10
2018-05-08T09:51:57.512Z,19.10
2018-05-08T09:54:25.815Z,19.20
2018-05-08T10:14:56.411Z,19.60
2018-05-08T10:17:24.723Z,19.60
2018-05-08T10:37:55.915Z,19.90
2018-05-08T10:40:24.979Z,20.10
2018-05-08T10:42:53.247Z,20.00
2018-05-08T10:45:21.497Z,20.20
2018-05-08T10:47:49.786Z,20.40
2018-05-08T10:50:18.090Z,20.50
2018-05-08T10:52:46.326Z,20.50
2018-05-08T11:13:20.555Z,20.90
2018-05-08T11:15:48.818Z,21.00
2018-05-08T11:18:17.107Z,21.10
2018-05-08T11:38:50.366Z,21.70
2018-05-08T11:41:18.662Z,21.70
2018-05-08T11:43:46.892Z,21.70
2018-05-08T11:46:15.968Z,21.80
2018-05-08T12:06:50.025Z,22.60
2018-05-08T12:09:19.137Z,22.70
2018-05-08T12:11:48.162Z,22.80
2018-05-08T12:14:16.463Z,22.80
2018-05-08T12:16:44.784Z,22.90
2018-05-08T12:19:13.042Z,23.00
2018-05-08T12:21:41.336Z,23.20
2018-05-08T12:24:10.802Z,23.50
2018-05-08T12:44:45.974Z,24.10
2018-05-08T12:47:14.898Z,24.10
2018-05-08T13:10:43.729Z,25.40
2018-05-08T13:13:12.762Z,25.80
2018-05-08T13:15:40.995Z,25.80
2018-05-08T13:18:10.073Z,26.50
2018-05-08T13:20:38.666Z,26.50
2018-05-08T13:23:07.257Z,26.60
2018-05-08T13:25:36.029Z,26.90
2018-05-08T13:28:04.426Z,27.20
2018-05-08T13:30:32.683Z,27.50
2018-05-08T13:33:01.178Z,27.70
2018-05-08T13:35:29.450Z,28.40
2018-05-08T13:37:57.683Z,29.10
2018-05-08T13:58:30.147Z,31.70
2018-05-08T14:00:58.484Z,31.90
2018-05-08T14:03:26.995Z,32.10
2018-05-08T14:05:55.422Z,32.90
2018-05-08T14:26:27.679Z,32.30
2018-05-08T14:46:59.975Z,32.60
2018-05-08T14:49:28.371Z,32.70
2018-05-08T14:51:56.669Z,32.40
2018-05-08T15:12:28.356Z,33.70
2018-05-08T15:14:57.393Z,33.80
2018-05-08T15:17:25.623Z,33.80
2018-05-08T15:19:54.699Z,32.50
2018-05-08T15:22:22.927Z,32.40
2018-05-08T15:24:51.207Z,32.90
2018-05-08T15:45:22.797Z,32.60
2018-05-08T15:47:51.063Z,32.40
2018-05-08T15:50:19.310Z,32.20
2018-05-08T15:52:47.641Z,31.90
2018-05-08T15:55:16.068Z,31.40
2018-05-08T15:57:44.202Z,31.00
2018-05-08T16:00:12.482Z,30.00
2018-05-08T16:02:40.785Z,29.00
2018-05-08T16:05:09.050Z,28.30
2018-05-08T16:07:37.563Z,27.80
2018-05-08T16:28:09.238Z,26.70
2018-05-08T16:30:37.575Z,26.60
2018-05-08T16:33:05.933Z,26.50
2018-05-08T16:35:34.970Z,26.20
2018-05-08T16:56:05.147Z,25.60
2018-05-08T16:58:33.389Z,25.50
2018-05-08T17:19:05.289Z,24.80
2018-05-08T17:21:33.528Z,24.70
2018-05-08T17:24:02.587Z,24.50
2018-05-08T17:26:31.033Z,24.50
2018-05-08T17:28:59.482Z,24.50
2018-05-08T17:31:28.493Z,24.30
2018-05-08T17:33:57.579Z,24.20
2018-05-08T17:36:25.874Z,24.20
2018-05-08T17:38:54.160Z,24.20
2018-05-08T17:41:23.286Z,24.00
2018-05-08T17:43:51.578Z,23.90
2018-05-08T18:04:23.547Z,23.10
2018-05-08T18:06:51.821Z,23.00
2018-05-08T18:09:20.085Z,23.00
2018-05-08T18:11:48.364Z,22.90
2018-05-08T18:14:17.401Z,22.80
2018-05-08T18:34:47.671Z,22.20
2018-05-08T18:37:15.947Z,22.10
2018-05-08T18:39:44.176Z,22.00
2018-05-08T18:42:12.535Z,22.00
2018-05-08T18:44:40.827Z,21.90
2018-05-08T19:05:10.968Z,21.10
2018-05-08T19:25:44.764Z,20.80
2018-05-08T19:31:15.778Z,20.80
2018-05-08T19:51:48.236Z,20.40
2018-05-08T19:54:16.502Z,20.40
2018-05-08T19:56:44.770Z,20.30
2018-05-08T19:59:13.099Z,20.30
2018-05-08T20:19:46.579Z,20.10
2018-05-08T20:22:14.875Z,20.10
2018-05-08T20:24:43.167Z,20.00
2018-05-08T20:27:11.426Z,20.10
2018-05-08T20:29:39.720Z,20.00
2018-05-08T20:50:12.070Z,19.60
2018-05-08T20:52:40.576Z,19.60
2018-05-08T20:55:08.843Z,19.60
2018-05-08T20:57:37.082Z,19.70
2018-05-08T21:00:05.370Z,19.60
2018-05-08T21:02:33.654Z,19.50
2018-05-08T21:05:02.642Z,19.50
2018-05-08T21:07:30.923Z,19.50
2018-05-08T21:09:59.161Z,19.40
2018-05-08T21:12:28.941Z,19.00
2018-05-08T21:14:57.595Z,18.90
2018-05-08T21:17:26.651Z,18.60
2018-05-08T21:19:54.943Z,18.50
2018-05-08T21:40:27.461Z,18.00
2018-05-08T21:42:57.194Z,17.80
2018-05-08T21:45:25.469Z,17.80
2018-05-08T21:47:53.778Z,17.80
2018-05-08T21:50:22.043Z,17.80
2018-05-08T21:52:50.308Z,17.80
2018-05-08T22:13:24.227Z,17.00
2018-05-08T22:15:53.229Z,17.00
2018-05-08T22:18:22.267Z,16.90
2018-05-08T22:20:50.593Z,16.80
2018-05-08T22:23:18.851Z,16.90
2018-05-08T22:25:47.122Z,16.80
2018-05-08T22:28:15.410Z,16.70
2018-05-08T22:30:43.703Z,16.80
2018-05-08T22:51:15.919Z,16.30
2018-05-08T22:53:44.954Z,16.10
2018-05-08T22:56:13.215Z,16.10
2018-05-08T22:58:42.237Z,16.00
2018-05-08T23:01:10.906Z,16.00
2018-05-08T23:21:43.598Z,15.50
2018-05-08T23:24:12.659Z,15.40
2018-05-08T23:26:40.918Z,15.50
2018-05-08T23:29:09.181Z,15.40
2018-05-08T23:31:37.449Z,15.40
2018-05-08T23:34:05.684Z,15.40
2018-05-08T23:36:34.014Z,15.40
2018-05-08T23:39:02.311Z,15.30
2018-05-08T23:41:30.618Z,15.30
